Airfield :
LOGIN :

Register | Disclaimer

   EN    FR    IT 

 










Legend :    VFR   Marginal VFR   IFR   Intensive IFR   Very Intensive IFR
Visi :
Ceiling :
>= 8 km
>= 3000ft
5 to 8 km
1000 to 3000 ft
1500m to 5 km
500 to 1000 ft
800 to 1500m
200 to 500 ft
< 800m
< 200 ft
Symbols :   Thunderstorms  Fog  Heavy snow  Heavy precipitations  Wind > 20 kt
SIGMETs :     Misc.  Thunderstorms  Icing  Turbulence  Mountain Waves  Volcanic Ashes







- Airport Elevation : 935 ft


EBFS - Florennes

CURRENT METAR :
  • 201555Z 09005KT 0600 FG BKN001 OVC002 00/M00 Q0997 RED

EXPIRED METARs :
  • 201525Z 09005KT 0800 FG BKN001 OVC002 00/M00 Q0997 RED
  • 201455Z 08007KT 0300 -SN BKN001 OVC002 00/M00 Q0997 RED
  • 201433Z 08005KT 0600 -SN SCT001 BKN002 00/M00 Q0997 RED
  • 201425Z 08005KT 0600 -SN SCT001 BKN002 00/M00 Q0997 RED
  • 201420Z AUTO 08005KT 2100 -SN SCT001/// BKN003/// OVC017/// 00/M00 Q0997 RED
  • 201403Z AUTO 07005KT 4200 -SN OVC003/// 01/M00 Q0997 YLO
  • 201355Z AUTO 07005KT 2800 -SN BKN003/// 01/00 Q0998 YLO
  • 201352Z AUTO 08004KT 5000 -RASN BKN003/// OVC006/// 01/00 Q0998 YLO
  • 201325Z AUTO 11004KT 6000 -RASN SCT003/// BKN005/// BKN007/// 01/00 Q0998 YLO

TAF TAF EBFS
Valid from the 20 at 13:00 until the 20 at 22:00 UTC


201142Z 2013/2022 18005KT 3500 BR BKN003 BKN005
TEMPO 2013/2015 1500 -SNRA BKN002 BKN004
PROB30
TEMPO 2013/2015 500 SN BKN001 BKN003
BECMG 2020/2022 VRB03KT 500 FG BKN001 OVC002
No reported NOTAMs for that airfield.
2 SIGMETs reported for the Brussels FIR (EBBU) :
 
Severe icing
EBBU SIGMET 04 VALID 201407/201700 EBBR
EBBU BRUSSELS FIR SEV ICE FCST E OF E004 FL025/100 MOV E WKN=
Severe turbulence
EBBU SIGMET 03 VALID 201400/201800 EBBR
EBBU BRUSSELS FIR SEV TURB FCST ENTIRE FIR FL180/310 MOV ENE NC=



MET'MAP, your aeronautical weather chart ! - Copyright ORBIFLY December 2007 - Disclaimer

ORBIFLY MET'MAP TEAM :

Programming & Development : Alexandra Zaïnal
Concept & Development : Baudouin d'Aumeries
Co-Development & Prog : Marc-Olivier Méhu
Technical & hardware support : Manuel Goepfert

Contact : metmap@orbifly.com




SOURCES & CREDITS :

   NOAA